sensor_id;sensor_type;location;lat;lon;timestamp;P1;durP1;ratioP1;P2;durP2;ratioP2
21432;SDS011;18592;49.708;10.900;2022-11-15T00:01:19;5.50;;;4.15;;
21432;SDS011;18592;49.708;10.900;2022-11-15T00:03:39;4.47;;;3.65;;
21432;SDS011;18592;49.708;10.900;2022-11-15T00:06:05;4.75;;;3.80;;
21432;SDS011;18592;49.708;10.900;2022-11-15T00:08:28;5.40;;;3.85;;
21432;SDS011;18592;49.708;10.900;2022-11-15T00:10:56;5.93;;;3.65;;
21432;SDS011;18592;49.708;10.900;2022-11-15T00:13:18;6.53;;;3.95;;
21432;SDS011;18592;49.708;10.900;2022-11-15T00:15:41;5.25;;;3.83;;
21432;SDS011;18592;49.708;10.900;2022-11-15T00:18:02;6.22;;;3.70;;
21432;SDS011;18592;49.708;10.900;2022-11-15T00:20:23;4.65;;;3.70;;
21432;SDS011;18592;49.708;10.900;2022-11-15T00:22:44;5.78;;;3.78;;
21432;SDS011;18592;49.708;10.900;2022-11-15T00:25:04;4.00;;;3.30;;
21432;SDS011;18592;49.708;10.900;2022-11-15T00:27:46;3.95;;;3.00;;
21432;SDS011;18592;49.708;10.900;2022-11-15T00:30:06;5.22;;;3.65;;
21432;SDS011;18592;49.708;10.900;2022-11-15T00:32:26;4.80;;;3.60;;
21432;SDS011;18592;49.708;10.900;2022-11-15T00:34:51;4.10;;;3.40;;
21432;SDS011;18592;49.708;10.900;2022-11-15T00:37:11;6.10;;;3.80;;
21432;SDS011;18592;49.708;10.900;2022-11-15T00:39:31;5.22;;;4.25;;
21432;SDS011;18592;49.708;10.900;2022-11-15T00:41:51;4.70;;;3.63;;
21432;SDS011;18592;49.708;10.900;2022-11-15T00:44:14;4.50;;;3.80;;
21432;SDS011;18592;49.708;10.900;2022-11-15T00:46:37;4.05;;;3.47;;
21432;SDS011;18592;49.708;10.900;2022-11-15T00:48:57;5.45;;;3.47;;
21432;SDS011;18592;49.708;10.900;2022-11-15T00:51:17;5.55;;;3.97;;
21432;SDS011;18592;49.708;10.900;2022-11-15T00:53:38;3.95;;;3.30;;
21432;SDS011;18592;49.708;10.900;2022-11-15T00:55:59;5.20;;;3.92;;
21432;SDS011;18592;49.708;10.900;2022-11-15T00:58:19;5.05;;;3.67;;
21432;SDS011;18592;49.708;10.900;2022-11-15T01:00:42;5.45;;;3.97;;
21432;SDS011;18592;49.708;10.900;2022-11-15T01:03:02;5.68;;;3.15;;
21432;SDS011;18592;49.708;10.900;2022-11-15T01:05:22;4.55;;;3.70;;
21432;SDS011;18592;49.708;10.900;2022-11-15T01:07:43;4.70;;;3.47;;
21432;SDS011;18592;49.708;10.900;2022-11-15T01:10:03;4.07;;;3.15;;
21432;SDS011;18592;49.708;10.900;2022-11-15T01:12:24;4.40;;;3.75;;
21432;SDS011;18592;49.708;10.900;2022-11-15T01:14:44;6.78;;;3.85;;
21432;SDS011;18592;49.708;10.900;2022-11-15T01:17:04;5.88;;;4.20;;
21432;SDS011;18592;49.708;10.900;2022-11-15T01:19:24;5.88;;;3.90;;
21432;SDS011;18592;49.708;10.900;2022-11-15T01:21:50;3.83;;;3.47;;
21432;SDS011;18592;49.708;10.900;2022-11-15T01:24:12;4.78;;;3.85;;
21432;SDS011;18592;49.708;10.900;2022-11-15T01:26:34;4.60;;;4.00;;
21432;SDS011;18592;49.708;10.900;2022-11-15T01:28:55;4.47;;;3.83;;
21432;SDS011;18592;49.708;10.900;2022-11-15T01:31:18;4.18;;;3.70;;
21432;SDS011;18592;49.708;10.900;2022-11-15T01:33:40;5.63;;;4.28;;
21432;SDS011;18592;49.708;10.900;2022-11-15T01:36:04;4.22;;;3.83;;
21432;SDS011;18592;49.708;10.900;2022-11-15T01:38:25;6.18;;;4.28;;
21432;SDS011;18592;49.708;10.900;2022-11-15T01:40:45;5.05;;;4.35;;
21432;SDS011;18592;49.708;10.900;2022-11-15T01:43:19;6.75;;;4.10;;
21432;SDS011;18592;49.708;10.900;2022-11-15T01:45:39;5.53;;;4.15;;
21432;SDS011;18592;49.708;10.900;2022-11-15T01:48:03;5.25;;;4.47;;
21432;SDS011;18592;49.708;10.900;2022-11-15T01:50:30;4.30;;;3.58;;
21432;SDS011;18592;49.708;10.900;2022-11-15T01:52:52;5.80;;;3.92;;
21432;SDS011;18592;49.708;10.900;2022-11-15T01:55:23;5.13;;;4.03;;
21432;SDS011;18592;49.708;10.900;2022-11-15T01:57:46;5.40;;;4.00;;
21432;SDS011;18592;49.708;10.900;2022-11-15T02:00:12;4.78;;;3.88;;
21432;SDS011;18592;49.708;10.900;2022-11-15T02:02:32;4.65;;;4.03;;
21432;SDS011;18592;49.708;10.900;2022-11-15T02:04:55;5.65;;;3.83;;
21432;SDS011;18592;49.708;10.900;2022-11-15T02:07:16;6.50;;;3.80;;
21432;SDS011;18592;49.708;10.900;2022-11-15T02:09:39;5.30;;;3.83;;
21432;SDS011;18592;49.708;10.900;2022-11-15T02:12:00;5.57;;;4.20;;
21432;SDS011;18592;49.708;10.900;2022-11-15T02:14:20;4.15;;;3.33;;
21432;SDS011;18592;49.708;10.900;2022-11-15T02:22:00;6.78;;;4.43;;
21432;SDS011;18592;49.708;10.900;2022-11-15T02:24:48;4.78;;;3.78;;
21432;SDS011;18592;49.708;10.900;2022-11-15T02:30:20;4.88;;;3.90;;
21432;SDS011;18592;49.708;10.900;2022-11-15T02:32:48;5.85;;;3.75;;
21432;SDS011;18592;49.708;10.900;2022-11-15T02:40:26;5.85;;;3.95;;
21432;SDS011;18592;49.708;10.900;2022-11-15T02:43:09;4.50;;;3.95;;
21432;SDS011;18592;49.708;10.900;2022-11-15T02:45:51;4.22;;;3.70;;
21432;SDS011;18592;49.708;10.900;2022-11-15T02:48:17;4.50;;;3.63;;
21432;SDS011;18592;49.708;10.900;2022-11-15T02:50:39;4.78;;;4.13;;
21432;SDS011;18592;49.708;10.900;2022-11-15T02:52:59;3.85;;;3.45;;
21432;SDS011;18592;49.708;10.900;2022-11-15T02:57:54;5.20;;;3.88;;
21432;SDS011;18592;49.708;10.900;2022-11-15T03:08:37;6.50;;;3.95;;
21432;SDS011;18592;49.708;10.900;2022-11-15T03:11:11;5.05;;;3.83;;
21432;SDS011;18592;49.708;10.900;2022-11-15T03:13:39;3.97;;;3.45;;
21432;SDS011;18592;49.708;10.900;2022-11-15T03:16:08;4.18;;;3.42;;
21432;SDS011;18592;49.708;10.900;2022-11-15T03:18:41;4.78;;;3.50;;
21432;SDS011;18592;49.708;10.900;2022-11-15T03:21:14;4.32;;;3.47;;
21432;SDS011;18592;49.708;10.900;2022-11-15T03:23:39;4.57;;;3.75;;
21432;SDS011;18592;49.708;10.900;2022-11-15T03:26:00;4.10;;;3.35;;
21432;SDS011;18592;49.708;10.900;2022-11-15T03:28:25;5.00;;;3.60;;
21432;SDS011;18592;49.708;10.900;2022-11-15T03:30:53;3.58;;;3.05;;
21432;SDS011;18592;49.708;10.900;2022-11-15T03:33:15;5.07;;;3.50;;
21432;SDS011;18592;49.708;10.900;2022-11-15T03:35:37;4.55;;;3.75;;
21432;SDS011;18592;49.708;10.900;2022-11-15T03:40:45;3.90;;;3.47;;
21432;SDS011;18592;49.708;10.900;2022-11-15T03:43:34;4.80;;;3.65;;
21432;SDS011;18592;49.708;10.900;2022-11-15T03:46:02;3.97;;;3.55;;
21432;SDS011;18592;49.708;10.900;2022-11-15T03:48:30;4.93;;;4.00;;
21432;SDS011;18592;49.708;10.900;2022-11-15T03:50:55;4.32;;;3.70;;
21432;SDS011;18592;49.708;10.900;2022-11-15T03:53:16;4.45;;;3.60;;
21432;SDS011;18592;49.708;10.900;2022-11-15T03:55:37;5.82;;;4.05;;
21432;SDS011;18592;49.708;10.900;2022-11-15T03:58:00;4.88;;;3.90;;
21432;SDS011;18592;49.708;10.900;2022-11-15T04:00:21;5.50;;;4.15;;
21432;SDS011;18592;49.708;10.900;2022-11-15T04:02:41;4.38;;;3.85;;
21432;SDS011;18592;49.708;10.900;2022-11-15T04:05:01;4.50;;;3.85;;
21432;SDS011;18592;49.708;10.900;2022-11-15T04:07:22;5.57;;;4.03;;
21432;SDS011;18592;49.708;10.900;2022-11-15T04:09:43;5.72;;;3.88;;
21432;SDS011;18592;49.708;10.900;2022-11-15T04:12:22;5.65;;;4.00;;
21432;SDS011;18592;49.708;10.900;2022-11-15T04:14:50;4.25;;;3.70;;
21432;SDS011;18592;49.708;10.900;2022-11-15T04:17:28;4.43;;;3.97;;
21432;SDS011;18592;49.708;10.900;2022-11-15T04:19:52;4.20;;;3.47;;
21432;SDS011;18592;49.708;10.900;2022-11-15T04:22:31;6.05;;;4.22;;
21432;SDS011;18592;49.708;10.900;2022-11-15T04:25:10;7.07;;;4.32;;
21432;SDS011;18592;49.708;10.900;2022-11-15T04:27:31;4.75;;;4.25;;
21432;SDS011;18592;49.708;10.900;2022-11-15T04:29:51;4.45;;;3.90;;
21432;SDS011;18592;49.708;10.900;2022-11-15T04:32:12;4.45;;;3.92;;
21432;SDS011;18592;49.708;10.900;2022-11-15T04:34:32;5.35;;;4.15;;
21432;SDS011;18592;49.708;10.900;2022-11-15T04:36:56;5.07;;;4.22;;
21432;SDS011;18592;49.708;10.900;2022-11-15T04:39:31;4.78;;;4.28;;
21432;SDS011;18592;49.708;10.900;2022-11-15T04:41:51;4.80;;;4.30;;
21432;SDS011;18592;49.708;10.900;2022-11-15T04:44:11;4.50;;;3.85;;
21432;SDS011;18592;49.708;10.900;2022-11-15T04:46:32;4.88;;;4.25;;
21432;SDS011;18592;49.708;10.900;2022-11-15T04:48:52;4.50;;;3.80;;
21432;SDS011;18592;49.708;10.900;2022-11-15T04:51:18;4.57;;;4.18;;
21432;SDS011;18592;49.708;10.900;2022-11-15T04:53:40;4.30;;;3.90;;
21432;SDS011;18592;49.708;10.900;2022-11-15T04:56:00;5.03;;;4.07;;
21432;SDS011;18592;49.708;10.900;2022-11-15T04:58:23;5.00;;;4.25;;
21432;SDS011;18592;49.708;10.900;2022-11-15T05:00:43;4.93;;;3.67;;
21432;SDS011;18592;49.708;10.900;2022-11-15T05:03:03;5.07;;;3.95;;
21432;SDS011;18592;49.708;10.900;2022-11-15T05:05:43;5.05;;;4.03;;
21432;SDS011;18592;49.708;10.900;2022-11-15T05:08:03;3.90;;;3.50;;
21432;SDS011;18592;49.708;10.900;2022-11-15T05:10:24;4.30;;;3.83;;
21432;SDS011;18592;49.708;10.900;2022-11-15T05:12:46;4.60;;;3.88;;
21432;SDS011;18592;49.708;10.900;2022-11-15T05:15:06;6.22;;;4.47;;
21432;SDS011;18592;49.708;10.900;2022-11-15T05:17:27;4.57;;;3.45;;
21432;SDS011;18592;49.708;10.900;2022-11-15T05:19:49;7.18;;;4.10;;
21432;SDS011;18592;49.708;10.900;2022-11-15T05:22:09;6.45;;;4.20;;
21432;SDS011;18592;49.708;10.900;2022-11-15T05:24:30;5.45;;;4.10;;
21432;SDS011;18592;49.708;10.900;2022-11-15T05:26:50;5.15;;;4.32;;
21432;SDS011;18592;49.708;10.900;2022-11-15T05:29:10;4.93;;;4.05;;
21432;SDS011;18592;49.708;10.900;2022-11-15T05:31:31;5.93;;;3.78;;
21432;SDS011;18592;49.708;10.900;2022-11-15T05:33:51;4.38;;;3.50;;
21432;SDS011;18592;49.708;10.900;2022-11-15T05:36:29;5.35;;;4.10;;
21432;SDS011;18592;49.708;10.900;2022-11-15T05:38:53;5.72;;;4.07;;
21432;SDS011;18592;49.708;10.900;2022-11-15T05:41:17;4.65;;;4.05;;
21432;SDS011;18592;49.708;10.900;2022-11-15T05:43:40;6.97;;;4.18;;
21432;SDS011;18592;49.708;10.900;2022-11-15T05:46:02;4.30;;;3.90;;
21432;SDS011;18592;49.708;10.900;2022-11-15T05:48:24;4.13;;;3.72;;
21432;SDS011;18592;49.708;10.900;2022-11-15T05:50:46;4.63;;;3.78;;
21432;SDS011;18592;49.708;10.900;2022-11-15T05:53:06;4.32;;;3.47;;
21432;SDS011;18592;49.708;10.900;2022-11-15T05:55:29;3.90;;;3.50;;
21432;SDS011;18592;49.708;10.900;2022-11-15T05:57:50;4.10;;;3.70;;
21432;SDS011;18592;49.708;10.900;2022-11-15T06:00:11;4.00;;;3.40;;
21432;SDS011;18592;49.708;10.900;2022-11-15T06:02:31;4.13;;;3.60;;
21432;SDS011;18592;49.708;10.900;2022-11-15T06:04:52;4.15;;;3.60;;
21432;SDS011;18592;49.708;10.900;2022-11-15T06:07:13;4.25;;;3.42;;
21432;SDS011;18592;49.708;10.900;2022-11-15T06:09:33;4.10;;;3.70;;
21432;SDS011;18592;49.708;10.900;2022-11-15T06:11:58;4.35;;;3.50;;
21432;SDS011;18592;49.708;10.900;2022-11-15T06:14:21;4.32;;;3.75;;
21432;SDS011;18592;49.708;10.900;2022-11-15T06:16:41;4.63;;;3.78;;
21432;SDS011;18592;49.708;10.900;2022-11-15T06:19:02;5.13;;;3.40;;
21432;SDS011;18592;49.708;10.900;2022-11-15T06:21:22;4.32;;;3.33;;
21432;SDS011;18592;49.708;10.900;2022-11-15T06:23:42;5.63;;;4.38;;
21432;SDS011;18592;49.708;10.900;2022-11-15T06:26:03;4.57;;;3.67;;
21432;SDS011;18592;49.708;10.900;2022-11-15T06:28:30;4.65;;;3.35;;
21432;SDS011;18592;49.708;10.900;2022-11-15T06:30:52;5.63;;;3.50;;
21432;SDS011;18592;49.708;10.900;2022-11-15T06:33:18;5.15;;;3.70;;
21432;SDS011;18592;49.708;10.900;2022-11-15T06:35:38;5.50;;;3.42;;
21432;SDS011;18592;49.708;10.900;2022-11-15T06:38:02;4.78;;;3.58;;
21432;SDS011;18592;49.708;10.900;2022-11-15T06:40:24;6.40;;;3.92;;
21432;SDS011;18592;49.708;10.900;2022-11-15T06:42:44;5.13;;;3.78;;
21432;SDS011;18592;49.708;10.900;2022-11-15T06:45:08;4.80;;;4.25;;
21432;SDS011;18592;49.708;10.900;2022-11-15T06:47:28;6.00;;;4.18;;
21432;SDS011;18592;49.708;10.900;2022-11-15T06:49:49;5.35;;;3.88;;
21432;SDS011;18592;49.708;10.900;2022-11-15T06:52:10;6.30;;;4.22;;
21432;SDS011;18592;49.708;10.900;2022-11-15T06:54:30;6.00;;;3.95;;
21432;SDS011;18592;49.708;10.900;2022-11-15T06:56:51;5.15;;;3.38;;
21432;SDS011;18592;49.708;10.900;2022-11-15T06:59:11;5.80;;;3.90;;
21432;SDS011;18592;49.708;10.900;2022-11-15T07:01:32;5.30;;;4.10;;
21432;SDS011;18592;49.708;10.900;2022-11-15T07:03:54;5.80;;;3.97;;
21432;SDS011;18592;49.708;10.900;2022-11-15T07:06:14;5.75;;;4.50;;
21432;SDS011;18592;49.708;10.900;2022-11-15T07:08:35;8.07;;;4.80;;
21432;SDS011;18592;49.708;10.900;2022-11-15T07:11:00;6.32;;;4.50;;
21432;SDS011;18592;49.708;10.900;2022-11-15T07:13:25;6.35;;;4.82;;
21432;SDS011;18592;49.708;10.900;2022-11-15T07:15:50;6.20;;;4.68;;
21432;SDS011;18592;49.708;10.900;2022-11-15T07:18:10;7.72;;;5.10;;
21432;SDS011;18592;49.708;10.900;2022-11-15T07:20:30;7.78;;;5.57;;
21432;SDS011;18592;49.708;10.900;2022-11-15T07:22:50;7.22;;;5.35;;
21432;SDS011;18592;49.708;10.900;2022-11-15T07:25:11;7.75;;;5.28;;
21432;SDS011;18592;49.708;10.900;2022-11-15T07:27:32;7.50;;;5.30;;
21432;SDS011;18592;49.708;10.900;2022-11-15T07:29:52;7.07;;;5.03;;
21432;SDS011;18592;49.708;10.900;2022-11-15T07:32:13;6.82;;;5.28;;
21432;SDS011;18592;49.708;10.900;2022-11-15T07:34:34;7.03;;;4.93;;
21432;SDS011;18592;49.708;10.900;2022-11-15T07:36:55;8.13;;;5.53;;
21432;SDS011;18592;49.708;10.900;2022-11-15T07:39:15;13.52;;;7.72;;
21432;SDS011;18592;49.708;10.900;2022-11-15T07:41:36;15.77;;;9.10;;
21432;SDS011;18592;49.708;10.900;2022-11-15T07:43:55;17.50;;;9.52;;
21432;SDS011;18592;49.708;10.900;2022-11-15T07:46:17;17.38;;;9.00;;
21432;SDS011;18592;49.708;10.900;2022-11-15T07:48:38;13.85;;;8.10;;
21432;SDS011;18592;49.708;10.900;2022-11-15T07:51:04;13.20;;;7.93;;
21432;SDS011;18592;49.708;10.900;2022-11-15T07:53:31;14.55;;;7.35;;
21432;SDS011;18592;49.708;10.900;2022-11-15T07:55:52;10.85;;;6.35;;
21432;SDS011;18592;49.708;10.900;2022-11-15T07:58:13;10.02;;;5.97;;
21432;SDS011;18592;49.708;10.900;2022-11-15T08:00:34;10.52;;;6.05;;
21432;SDS011;18592;49.708;10.900;2022-11-15T08:03:05;7.55;;;4.85;;
21432;SDS011;18592;49.708;10.900;2022-11-15T08:05:27;7.18;;;4.38;;
21432;SDS011;18592;49.708;10.900;2022-11-15T08:07:47;6.82;;;4.30;;
21432;SDS011;18592;49.708;10.900;2022-11-15T08:10:11;4.72;;;3.28;;
21432;SDS011;18592;49.708;10.900;2022-11-15T08:12:31;4.45;;;3.67;;
21432;SDS011;18592;49.708;10.900;2022-11-15T08:14:52;4.70;;;3.58;;
21432;SDS011;18592;49.708;10.900;2022-11-15T08:17:13;5.10;;;3.65;;
21432;SDS011;18592;49.708;10.900;2022-11-15T08:19:33;4.78;;;3.50;;
21432;SDS011;18592;49.708;10.900;2022-11-15T08:21:53;4.40;;;3.20;;
21432;SDS011;18592;49.708;10.900;2022-11-15T08:24:13;4.43;;;3.40;;
21432;SDS011;18592;49.708;10.900;2022-11-15T08:26:34;5.15;;;3.13;;
21432;SDS011;18592;49.708;10.900;2022-11-15T08:28:55;4.80;;;3.25;;
21432;SDS011;18592;49.708;10.900;2022-11-15T08:31:16;5.50;;;4.00;;
21432;SDS011;18592;49.708;10.900;2022-11-15T08:33:37;3.60;;;3.00;;
21432;SDS011;18592;49.708;10.900;2022-11-15T08:35:58;5.32;;;3.25;;
21432;SDS011;18592;49.708;10.900;2022-11-15T08:38:20;5.20;;;3.33;;
21432;SDS011;18592;49.708;10.900;2022-11-15T08:40:40;3.70;;;3.17;;
21432;SDS011;18592;49.708;10.900;2022-11-15T08:43:03;5.28;;;3.35;;
21432;SDS011;18592;49.708;10.900;2022-11-15T08:45:23;3.83;;;3.00;;
21432;SDS011;18592;49.708;10.900;2022-11-15T08:47:43;4.85;;;3.50;;
21432;SDS011;18592;49.708;10.900;2022-11-15T08:50:10;4.00;;;3.63;;
21432;SDS011;18592;49.708;10.900;2022-11-15T08:52:30;3.40;;;3.10;;
21432;SDS011;18592;49.708;10.900;2022-11-15T08:54:51;5.70;;;3.28;;
21432;SDS011;18592;49.708;10.900;2022-11-15T08:57:11;3.30;;;3.00;;
21432;SDS011;18592;49.708;10.900;2022-11-15T08:59:32;3.35;;;3.05;;
21432;SDS011;18592;49.708;10.900;2022-11-15T09:01:56;4.60;;;3.00;;
21432;SDS011;18592;49.708;10.900;2022-11-15T09:04:17;5.93;;;3.58;;
21432;SDS011;18592;49.708;10.900;2022-11-15T09:06:37;3.80;;;3.28;;
21432;SDS011;18592;49.708;10.900;2022-11-15T09:09:02;3.25;;;2.78;;
21432;SDS011;18592;49.708;10.900;2022-11-15T09:11:23;3.30;;;3.00;;
21432;SDS011;18592;49.708;10.900;2022-11-15T09:13:43;3.97;;;3.10;;
21432;SDS011;18592;49.708;10.900;2022-11-15T09:16:04;5.03;;;3.40;;
21432;SDS011;18592;49.708;10.900;2022-11-15T09:18:24;4.38;;;3.33;;
21432;SDS011;18592;49.708;10.900;2022-11-15T09:20:47;3.88;;;2.75;;
21432;SDS011;18592;49.708;10.900;2022-11-15T09:23:09;4.07;;;2.80;;
21432;SDS011;18592;49.708;10.900;2022-11-15T09:25:30;3.78;;;2.78;;
21432;SDS011;18592;49.708;10.900;2022-11-15T09:27:50;3.80;;;2.70;;
21432;SDS011;18592;49.708;10.900;2022-11-15T09:30:11;4.93;;;2.55;;
21432;SDS011;18592;49.708;10.900;2022-11-15T09:32:31;5.07;;;3.05;;
21432;SDS011;18592;49.708;10.900;2022-11-15T09:34:58;3.58;;;2.90;;
21432;SDS011;18592;49.708;10.900;2022-11-15T09:37:18;3.67;;;2.95;;
21432;SDS011;18592;49.708;10.900;2022-11-15T09:39:38;4.97;;;2.90;;
21432;SDS011;18592;49.708;10.900;2022-11-15T09:42:05;3.95;;;2.60;;
21432;SDS011;18592;49.708;10.900;2022-11-15T09:47:03;4.78;;;3.00;;
21432;SDS011;18592;49.708;10.900;2022-11-15T09:49:38;3.78;;;2.78;;
21432;SDS011;18592;49.708;10.900;2022-11-15T09:51:49;3.30;;;2.65;;
21432;SDS011;18592;49.708;10.900;2022-11-15T09:54:04;2.95;;;2.50;;
21432;SDS011;18592;49.708;10.900;2022-11-15T09:56:35;3.67;;;2.53;;
21432;SDS011;18592;49.708;10.900;2022-11-15T09:58:40;2.78;;;2.40;;
21432;SDS011;18592;49.708;10.900;2022-11-15T10:00:44;4.85;;;2.88;;
21432;SDS011;18592;49.708;10.900;2022-11-15T10:05:10;3.10;;;2.75;;
21432;SDS011;18592;49.708;10.900;2022-11-15T10:07:21;3.97;;;2.60;;
21432;SDS011;18592;49.708;10.900;2022-11-15T10:11:58;3.08;;;2.20;;
21432;SDS011;18592;49.708;10.900;2022-11-15T10:14:01;4.63;;;2.60;;
21432;SDS011;18592;49.708;10.900;2022-11-15T10:16:27;3.38;;;2.58;;
21432;SDS011;18592;49.708;10.900;2022-11-15T10:18:46;2.97;;;2.42;;
21432;SDS011;18592;49.708;10.900;2022-11-15T10:21:11;3.25;;;2.80;;
21432;SDS011;18592;49.708;10.900;2022-11-15T10:23:19;3.65;;;2.45;;
21432;SDS011;18592;49.708;10.900;2022-11-15T10:27:29;2.67;;;2.30;;
21432;SDS011;18592;49.708;10.900;2022-11-15T10:29:31;4.53;;;3.03;;
21432;SDS011;18592;49.708;10.900;2022-11-15T10:31:33;3.85;;;2.80;;
21432;SDS011;18592;49.708;10.900;2022-11-15T10:33:35;2.63;;;2.40;;
21432;SDS011;18592;49.708;10.900;2022-11-15T10:35:40;2.65;;;2.42;;
21432;SDS011;18592;49.708;10.900;2022-11-15T10:38:06;5.38;;;2.60;;
21432;SDS011;18592;49.708;10.900;2022-11-15T10:40:22;4.43;;;2.95;;
21432;SDS011;18592;49.708;10.900;2022-11-15T10:42:28;2.50;;;2.30;;
21432;SDS011;18592;49.708;10.900;2022-11-15T10:44:31;2.95;;;2.63;;
21432;SDS011;18592;49.708;10.900;2022-11-15T10:46:37;3.42;;;2.53;;
21432;SDS011;18592;49.708;10.900;2022-11-15T10:48:47;3.22;;;2.60;;
21432;SDS011;18592;49.708;10.900;2022-11-15T10:50:49;3.33;;;2.45;;
21432;SDS011;18592;49.708;10.900;2022-11-15T10:52:53;3.42;;;2.33;;
21432;SDS011;18592;49.708;10.900;2022-11-15T10:59:31;2.80;;;2.30;;
21432;SDS011;18592;49.708;10.900;2022-11-15T11:01:46;3.88;;;2.58;;
21432;SDS011;18592;49.708;10.900;2022-11-15T11:10:19;3.45;;;2.30;;
21432;SDS011;18592;49.708;10.900;2022-11-15T11:12:43;3.20;;;2.35;;
21432;SDS011;18592;49.708;10.900;2022-11-15T11:14:45;4.20;;;2.08;;
21432;SDS011;18592;49.708;10.900;2022-11-15T11:16:48;3.05;;;2.22;;
21432;SDS011;18592;49.708;10.900;2022-11-15T11:19:08;4.50;;;2.90;;
21432;SDS011;18592;49.708;10.900;2022-11-15T11:21:13;3.42;;;2.40;;
21432;SDS011;18592;49.708;10.900;2022-11-15T11:35:22;3.67;;;2.42;;
21432;SDS011;18592;49.708;10.900;2022-11-15T11:37:36;2.50;;;2.30;;
21432;SDS011;18592;49.708;10.900;2022-11-15T11:46:56;2.80;;;2.13;;
21432;SDS011;18592;49.708;10.900;2022-11-15T11:49:06;3.25;;;2.60;;
21432;SDS011;18592;49.708;10.900;2022-11-15T11:51:13;3.28;;;2.13;;
21432;SDS011;18592;49.708;10.900;2022-11-15T11:53:41;3.25;;;2.55;;
21432;SDS011;18592;49.708;10.900;2022-11-15T11:55:53;2.53;;;2.30;;
21432;SDS011;18592;49.708;10.900;2022-11-15T11:58:16;3.83;;;2.17;;
21432;SDS011;18592;49.708;10.900;2022-11-15T12:00:24;3.13;;;2.55;;
21432;SDS011;18592;49.708;10.900;2022-11-15T12:02:36;3.53;;;2.33;;
21432;SDS011;18592;49.708;10.900;2022-11-15T12:04:43;2.42;;;2.22;;
21432;SDS011;18592;49.708;10.900;2022-11-15T12:08:58;3.47;;;2.40;;
21432;SDS011;18592;49.708;10.900;2022-11-15T12:11:08;3.60;;;2.55;;
21432;SDS011;18592;49.708;10.900;2022-11-15T12:13:19;2.83;;;2.47;;
21432;SDS011;18592;49.708;10.900;2022-11-15T12:15:26;3.88;;;2.40;;
21432;SDS011;18592;49.708;10.900;2022-11-15T12:17:33;2.63;;;2.42;;
21432;SDS011;18592;49.708;10.900;2022-11-15T12:19:35;4.18;;;2.80;;
21432;SDS011;18592;49.708;10.900;2022-11-15T12:24:25;4.00;;;2.75;;
21432;SDS011;18592;49.708;10.900;2022-11-15T12:26:32;3.78;;;2.60;;
21432;SDS011;18592;49.708;10.900;2022-11-15T12:31:28;4.63;;;2.55;;
21432;SDS011;18592;49.708;10.900;2022-11-15T12:33:33;3.20;;;2.40;;
21432;SDS011;18592;49.708;10.900;2022-11-15T12:35:39;3.30;;;2.70;;
21432;SDS011;18592;49.708;10.900;2022-11-15T12:37:50;3.88;;;2.53;;
21432;SDS011;18592;49.708;10.900;2022-11-15T12:50:53;3.30;;;2.42;;
21432;SDS011;18592;49.708;10.900;2022-11-15T12:55:32;3.67;;;2.35;;
21432;SDS011;18592;49.708;10.900;2022-11-15T12:57:35;2.85;;;2.42;;
21432;SDS011;18592;49.708;10.900;2022-11-15T13:02:00;3.47;;;2.33;;
21432;SDS011;18592;49.708;10.900;2022-11-15T13:08:56;2.60;;;2.40;;
21432;SDS011;18592;49.708;10.900;2022-11-15T13:11:18;2.90;;;2.25;;
21432;SDS011;18592;49.708;10.900;2022-11-15T13:13:42;3.15;;;2.58;;
21432;SDS011;18592;49.708;10.900;2022-11-15T13:15:52;5.57;;;2.40;;
21432;SDS011;18592;49.708;10.900;2022-11-15T13:17:57;5.38;;;3.08;;
21432;SDS011;18592;49.708;10.900;2022-11-15T13:22:04;3.05;;;2.38;;
21432;SDS011;18592;49.708;10.900;2022-11-15T13:24:31;4.05;;;2.65;;
21432;SDS011;18592;49.708;10.900;2022-11-15T13:26:33;3.17;;;2.47;;
21432;SDS011;18592;49.708;10.900;2022-11-15T13:32:49;2.90;;;2.60;;
21432;SDS011;18592;49.708;10.900;2022-11-15T13:34:52;3.40;;;2.50;;
21432;SDS011;18592;49.708;10.900;2022-11-15T13:36:54;3.83;;;2.60;;
21432;SDS011;18592;49.708;10.900;2022-11-15T13:38:59;3.65;;;2.75;;
21432;SDS011;18592;49.708;10.900;2022-11-15T13:45:23;5.35;;;2.50;;
21432;SDS011;18592;49.708;10.900;2022-11-15T13:47:26;2.78;;;2.30;;
21432;SDS011;18592;49.708;10.900;2022-11-15T13:49:33;3.63;;;2.50;;
21432;SDS011;18592;49.708;10.900;2022-11-15T13:53:57;3.05;;;2.15;;
21432;SDS011;18592;49.708;10.900;2022-11-15T13:56:02;4.30;;;2.42;;
21432;SDS011;18592;49.708;10.900;2022-11-15T13:58:08;3.88;;;2.50;;
21432;SDS011;18592;49.708;10.900;2022-11-15T14:00:34;3.85;;;2.60;;
21432;SDS011;18592;49.708;10.900;2022-11-15T14:02:40;3.92;;;2.50;;
21432;SDS011;18592;49.708;10.900;2022-11-15T14:04:53;5.85;;;2.60;;
21432;SDS011;18592;49.708;10.900;2022-11-15T14:07:01;4.03;;;2.67;;
21432;SDS011;18592;49.708;10.900;2022-11-15T14:13:28;3.92;;;2.80;;
21432;SDS011;18592;49.708;10.900;2022-11-15T14:15:35;3.88;;;2.42;;
21432;SDS011;18592;49.708;10.900;2022-11-15T14:17:38;3.13;;;2.45;;
21432;SDS011;18592;49.708;10.900;2022-11-15T14:19:50;4.80;;;2.88;;
21432;SDS011;18592;49.708;10.900;2022-11-15T14:24:22;3.90;;;2.83;;
21432;SDS011;18592;49.708;10.900;2022-11-15T14:26:32;5.30;;;2.70;;
21432;SDS011;18592;49.708;10.900;2022-11-15T14:28:36;4.30;;;3.15;;
21432;SDS011;18592;49.708;10.900;2022-11-15T14:30:40;3.70;;;2.80;;
21432;SDS011;18592;49.708;10.900;2022-11-15T14:32:46;7.55;;;2.90;;
21432;SDS011;18592;49.708;10.900;2022-11-15T14:35:01;6.35;;;3.00;;
21432;SDS011;18592;49.708;10.900;2022-11-15T14:37:04;7.60;;;2.83;;
21432;SDS011;18592;49.708;10.900;2022-11-15T14:39:06;4.05;;;2.95;;
21432;SDS011;18592;49.708;10.900;2022-11-15T14:41:11;5.28;;;2.83;;
21432;SDS011;18592;49.708;10.900;2022-11-15T14:43:22;6.05;;;2.95;;
21432;SDS011;18592;49.708;10.900;2022-11-15T14:45:26;5.18;;;3.05;;
21432;SDS011;18592;49.708;10.900;2022-11-15T14:47:32;4.45;;;3.28;;
21432;SDS011;18592;49.708;10.900;2022-11-15T14:49:33;4.90;;;2.92;;
21432;SDS011;18592;49.708;10.900;2022-11-15T14:51:35;4.97;;;2.95;;
21432;SDS011;18592;49.708;10.900;2022-11-15T14:53:38;5.53;;;3.30;;
21432;SDS011;18592;49.708;10.900;2022-11-15T14:55:41;4.53;;;3.20;;
21432;SDS011;18592;49.708;10.900;2022-11-15T14:57:43;5.93;;;3.75;;
21432;SDS011;18592;49.708;10.900;2022-11-15T14:59:45;5.25;;;3.28;;
21432;SDS011;18592;49.708;10.900;2022-11-15T15:01:50;10.25;;;3.55;;
21432;SDS011;18592;49.708;10.900;2022-11-15T15:03:52;5.97;;;3.00;;
21432;SDS011;18592;49.708;10.900;2022-11-15T15:05:57;8.23;;;3.90;;
21432;SDS011;18592;49.708;10.900;2022-11-15T15:07:58;10.13;;;4.18;;
21432;SDS011;18592;49.708;10.900;2022-11-15T15:10:01;8.85;;;3.88;;
21432;SDS011;18592;49.708;10.900;2022-11-15T15:12:23;10.30;;;3.75;;
21432;SDS011;18592;49.708;10.900;2022-11-15T15:14:25;9.10;;;3.75;;
21432;SDS011;18592;49.708;10.900;2022-11-15T15:16:29;8.43;;;3.85;;
21432;SDS011;18592;49.708;10.900;2022-11-15T15:18:31;8.43;;;3.83;;
21432;SDS011;18592;49.708;10.900;2022-11-15T15:20:34;9.18;;;3.92;;
21432;SDS011;18592;49.708;10.900;2022-11-15T15:22:36;6.82;;;3.60;;
21432;SDS011;18592;49.708;10.900;2022-11-15T15:24:38;5.72;;;3.58;;
21432;SDS011;18592;49.708;10.900;2022-11-15T15:26:40;7.43;;;3.85;;
21432;SDS011;18592;49.708;10.900;2022-11-15T15:28:41;7.63;;;3.90;;
21432;SDS011;18592;49.708;10.900;2022-11-15T15:30:43;7.95;;;3.67;;
21432;SDS011;18592;49.708;10.900;2022-11-15T15:32:45;8.43;;;3.70;;